Time;durP1;ratioP1;P1;durP2;ratioP2;P2;SDS_P1;SDS_P2;PMS_P1;PMS_P2;Temp;Humidity;BMP_temperature;BMP_pressure;BME280_temperature;BME280_humidity;BME280_pressure;Samples;Min_cycle;Max_cycle;Signal;HPM_P1;HPM_P2
2021/11/07 00:00:37;;;;;;;17.10;9.23;;;1.70;81.20;;;;;;5012870;28;20509;-74
2021/11/07 00:03:24;;;;;;;16.27;8.80;;;1.60;81.60;;;;;;5012572;28;20026;-73
2021/11/07 00:06:05;;;;;;;13.82;8.18;;;1.60;81.70;;;;;;5012843;28;20030;-73
2021/11/07 00:11:06;;;;;;;16.15;8.10;;;1.50;82.30;;;;;;5013213;28;20080;-75
2021/11/07 00:13:31;;;;;;;16.23;8.68;;;1.60;82.40;;;;;;5011769;28;20022;-75
2021/11/07 00:16:06;;;;;;;14.77;8.40;;;1.70;82.60;;;;;;5011295;28;20091;-72
2021/11/07 00:18:42;;;;;;;15.82;8.70;;;1.70;82.40;;;;;;5015753;28;20121;-74
2021/11/07 00:21:19;;;;;;;16.23;8.23;;;1.80;82.00;;;;;;5032415;28;20032;-73
2021/11/07 00:24:01;;;;;;;15.98;8.23;;;1.90;81.60;;;;;;5032404;28;20071;-73
2021/11/07 00:29:16;;;;;;;16.30;8.90;;;1.70;81.80;;;;;;5036186;28;20488;-74
2021/11/07 00:37:05;;;;;;;15.13;8.45;;;1.80;82.40;;;;;;5035623;28;20382;-74
2021/11/07 00:39:46;;;;;;;13.55;8.23;;;1.80;82.10;;;;;;5017614;28;20030;-75
2021/11/07 00:45:03;;;;;;;15.32;8.10;;;1.80;82.40;;;;;;5035408;28;20025;-75
2021/11/07 00:49:55;;;;;;;15.98;9.13;;;1.80;82.40;;;;;;5035181;28;20026;-74
2021/11/07 00:52:30;;;;;;;14.57;8.57;;;1.80;82.20;;;;;;5017795;28;20030;-73
2021/11/07 01:00:02;;;;;;;15.63;9.32;;;1.90;81.90;;;;;;5035210;28;20147;-73
2021/11/07 01:02:32;;;;;;;;;;;1.90;81.70;;;;;;5018004;28;20393;-73
2021/11/07 01:05:06;;;;;;;15.30;8.75;;;2.00;81.50;;;;;;5035122;28;19984;-73
2021/11/07 01:07:32;;;;;;;16.10;9.32;;;1.90;81.50;;;;;;5017344;28;20030;-73
2021/11/07 01:09:58;;;;;;;16.17;9.20;;;1.80;81.40;;;;;;5017199;28;20152;-73
2021/11/07 01:12:24;;;;;;;18.48;9.98;;;1.80;81.40;;;;;;5017273;28;20021;-73
2021/11/07 01:14:55;;;;;;;17.55;10.05;;;1.80;81.60;;;;;;5017035;28;20030;-73
2021/11/07 01:17:20;;;;;;;21.70;10.70;;;1.80;81.50;;;;;;5017177;28;20037;-73
2021/11/07 01:19:47;;;;;;;16.15;9.77;;;1.80;81.40;;;;;;5003391;28;20057;-73
2021/11/07 01:22:18;;;;;;;19.25;10.07;;;1.80;81.70;;;;;;4981400;28;20034;-73
2021/11/07 01:25:02;;;;;;;21.27;10.23;;;1.80;81.90;;;;;;4997412;28;20028;-74
2021/11/07 01:27:35;;;;;;;11.45;7.35;;;1.70;82.10;;;;;;4997387;28;20030;-73
2021/11/07 01:30:04;;;;;;;17.70;10.35;;;1.60;82.10;;;;;;4997298;28;20032;-73
2021/11/07 01:32:37;;;;;;;24.83;10.63;;;1.60;81.90;;;;;;4997180;28;20149;-74
2021/11/07 01:35:12;;;;;;;17.77;10.02;;;1.60;82.30;;;;;;4997151;28;20442;-73
2021/11/07 01:37:58;;;;;;;18.83;9.55;;;1.60;82.50;;;;;;4996300;28;20144;-74
2021/11/07 01:40:28;;;;;;;16.95;9.35;;;1.50;82.80;;;;;;4997107;28;20022;-74
2021/11/07 01:42:58;;;;;;;17.10;8.95;;;1.60;82.90;;;;;;4996908;28;20025;-74
2021/11/07 01:45:32;;;;;;;16.35;8.90;;;1.60;82.60;;;;;;4996903;28;20137;-74
2021/11/07 01:48:17;;;;;;;17.95;9.85;;;1.60;82.40;;;;;;4996722;28;20029;-74
2021/11/07 01:50:51;;;;;;;16.27;9.52;;;1.60;82.30;;;;;;4996912;28;20130;-75
2021/11/07 01:53:22;;;;;;;13.07;8.13;;;1.60;82.70;;;;;;5014487;28;20025;-73
2021/11/07 01:55:49;;;;;;;22.48;11.52;;;1.60;82.80;;;;;;4996639;28;20062;-73
2021/11/07 01:58:15;;;;;;;19.65;10.88;;;1.60;83.10;;;;;;4996525;28;20022;-74
2021/11/07 02:00:42;;;;;;;20.25;9.82;;;1.50;83.30;;;;;;4996581;28;20049;-74
2021/11/07 02:03:08;;;;;;;16.80;8.98;;;1.60;83.50;;;;;;5014205;28;20092;-74
2021/11/07 02:05:34;;;;;;;18.88;9.93;;;1.60;83.50;;;;;;4996279;28;20116;-73
2021/11/07 02:08:03;;;;;;;16.58;9.45;;;1.70;83.70;;;;;;4996382;28;20022;-74
2021/11/07 02:10:29;;;;;;;17.67;9.25;;;1.70;83.50;;;;;;4996507;28;20120;-73
2021/11/07 02:12:56;;;;;;;15.60;8.75;;;1.80;82.90;;;;;;4996395;28;20383;-73
2021/11/07 02:15:22;;;;;;;15.63;8.55;;;1.80;82.50;;;;;;4995709;28;20481;-75
2021/11/07 02:17:48;;;;;;;17.02;8.25;;;1.90;82.50;;;;;;5014011;28;20045;-74
2021/11/07 02:20:41;;;;;;;18.08;9.27;;;1.90;82.50;;;;;;5013217;28;20092;-74
2021/11/07 02:23:12;;;;;;;18.40;9.45;;;1.80;82.20;;;;;;5013906;28;20500;-74
2021/11/07 02:25:39;;;;;;;16.95;8.88;;;1.80;82.70;;;;;;5015964;28;20025;-74
2021/11/07 02:28:06;;;;;;;17.83;9.85;;;1.80;82.90;;;;;;5015848;28;20026;-74
2021/11/07 02:30:34;;;;;;;17.20;9.55;;;1.80;83.10;;;;;;5015671;28;20040;-75
2021/11/07 02:32:59;;;;;;;17.73;10.30;;;1.80;83.50;;;;;;5015748;28;20025;-75
2021/11/07 02:35:28;;;;;;;17.98;10.20;;;1.80;83.70;;;;;;5033244;28;20390;-74
2021/11/07 02:37:55;;;;;;;19.10;9.82;;;1.80;84.00;;;;;;5015743;28;20018;-75
2021/11/07 02:40:21;;;;;;;18.67;10.25;;;1.90;84.30;;;;;;5015612;28;20026;-74
2021/11/07 02:42:48;;;;;;;23.05;11.65;;;1.90;84.10;;;;;;5032110;28;20458;-75
2021/11/07 02:45:15;;;;;;;18.73;10.55;;;2.00;83.90;;;;;;5033400;28;20028;-74
2021/11/07 02:47:44;;;;;;;18.80;10.50;;;2.00;83.50;;;;;;5033108;28;20048;-76
2021/11/07 02:50:14;;;;;;;19.77;10.35;;;2.10;83.20;;;;;;5033040;28;20549;-75
2021/11/07 02:52:40;;;;;;;19.23;9.70;;;2.00;83.10;;;;;;5015199;28;20033;-74
2021/11/07 02:55:09;;;;;;;20.20;11.43;;;2.10;83.20;;;;;;5015506;28;20037;-74
2021/11/07 02:57:36;;;;;;;18.92;10.52;;;2.10;82.60;;;;;;4999003;28;20026;-75
2021/11/07 03:00:05;;;;;;;17.85;10.20;;;2.10;82.80;;;;;;5015696;28;20029;-74
2021/11/07 03:02:31;;;;;;;16.63;10.05;;;2.20;82.90;;;;;;5015491;28;20060;-74
2021/11/07 03:04:57;;;;;;;20.50;11.77;;;2.10;82.80;;;;;;5031502;28;20053;-74
2021/11/07 03:07:23;;;;;;;15.40;9.18;;;2.20;83.00;;;;;;5014960;28;20033;-75
2021/11/07 03:09:50;;;;;;;17.73;10.23;;;2.20;83.00;;;;;;5015096;28;20437;-76
2021/11/07 03:12:16;;;;;;;19.33;10.60;;;2.20;83.20;;;;;;5015320;28;20108;-75
2021/11/07 03:14:48;;;;;;;16.40;9.82;;;2.30;83.40;;;;;;5014995;28;20072;-75
2021/11/07 03:17:19;;;;;;;17.95;10.60;;;2.30;83.20;;;;;;5032884;28;20032;-74
2021/11/07 03:19:45;;;;;;;15.38;9.55;;;2.40;82.80;;;;;;5015125;28;20098;-75
2021/11/07 03:22:13;;;;;;;15.85;9.48;;;2.40;82.70;;;;;;5031571;28;20037;-74
2021/11/07 03:24:42;;;;;;;18.08;9.70;;;2.50;82.40;;;;;;5015051;28;20071;-74
2021/11/07 03:27:17;;;;;;;14.35;9.07;;;2.50;82.10;;;;;;5014966;28;20130;-74
2021/11/07 03:29:47;;;;;;;15.80;9.55;;;2.40;81.60;;;;;;5015105;28;20159;-75
2021/11/07 03:32:19;;;;;;;16.73;9.40;;;2.40;81.60;;;;;;5032748;28;20094;-74
2021/11/07 03:34:48;;;;;;;15.80;9.27;;;2.40;81.60;;;;;;5031342;28;20037;-74
2021/11/07 03:37:21;;;;;;;16.60;9.07;;;2.50;81.80;;;;;;5031644;28;20386;-73
2021/11/07 03:39:48;;;;;;;15.20;8.80;;;2.50;81.60;;;;;;5015156;28;20168;-74
2021/11/07 03:42:14;;;;;;;15.60;8.85;;;2.50;81.40;;;;;;5014675;28;20026;-74
2021/11/07 03:44:40;;;;;;;15.45;9.07;;;2.50;81.40;;;;;;4998618;28;20018;-74
2021/11/07 03:47:07;;;;;;;17.65;8.95;;;2.50;81.10;;;;;;5032668;28;20115;-74
2021/11/07 03:49:33;;;;;;;16.23;8.80;;;2.50;81.00;;;;;;5015133;28;20029;-74
2021/11/07 03:51:59;;;;;;;15.98;9.02;;;2.50;81.70;;;;;;5032522;28;20022;-74
2021/11/07 03:54:29;;;;;;;15.18;8.27;;;2.60;80.90;;;;;;5032016;28;20025;-74
2021/11/07 03:56:56;;;;;;;15.43;8.52;;;2.60;80.90;;;;;;5032468;28;20052;-74
2021/11/07 03:59:22;;;;;;;16.98;8.05;;;2.60;80.40;;;;;;5032435;28;20466;-75
2021/11/07 04:01:48;;;;;;;15.23;9.52;;;2.50;80.10;;;;;;5033304;28;20116;-74
2021/11/07 04:04:13;;;;;;;14.05;8.73;;;2.50;80.20;;;;;;5034997;28;20018;-74
2021/11/07 04:06:39;;;;;;;15.10;8.30;;;2.40;80.50;;;;;;5035072;28;20386;-74
2021/11/07 04:09:08;;;;;;;16.08;9.30;;;2.30;80.80;;;;;;5035009;28;20079;-75
2021/11/07 04:11:34;;;;;;;15.20;9.25;;;2.30;81.20;;;;;;5034846;28;20052;-74
2021/11/07 04:14:00;;;;;;;17.15;8.70;;;2.30;81.40;;;;;;5002197;28;20026;-75
2021/11/07 04:16:26;;;;;;;17.83;9.48;;;2.20;80.80;;;;;;5036267;28;20064;-75
2021/11/07 04:18:52;;;;;;;15.98;8.95;;;2.20;81.10;;;;;;5034717;28;20069;-74
2021/11/07 04:21:20;;;;;;;19.23;9.43;;;2.10;81.10;;;;;;5034909;28;20060;-74
2021/11/07 04:23:45;;;;;;;15.77;8.88;;;2.10;81.20;;;;;;5036057;28;20018;-76
2021/11/07 04:26:11;;;;;;;15.70;9.48;;;2.10;81.30;;;;;;5038549;28;20029;-75
2021/11/07 04:28:37;;;;;;;18.02;10.05;;;2.10;81.40;;;;;;5040567;28;20029;-75
2021/11/07 04:31:02;;;;;;;17.20;9.32;;;2.10;81.30;;;;;;5021952;28;20033;-76
2021/11/07 04:33:29;;;;;;;14.43;8.90;;;2.10;81.60;;;;;;5019902;28;20022;-75
2021/11/07 04:35:54;;;;;;;15.48;8.93;;;2.10;81.70;;;;;;5034341;28;20033;-76
2021/11/07 04:38:20;;;;;;;15.80;8.93;;;2.10;81.60;;;;;;5034306;28;20044;-73
2021/11/07 04:40:47;;;;;;;14.02;8.70;;;2.20;81.50;;;;;;5034375;28;20541;-76
2021/11/07 04:43:13;;;;;;;15.43;9.65;;;2.20;81.40;;;;;;5034449;28;20136;-75
2021/11/07 04:45:38;;;;;;;16.48;9.52;;;2.20;81.20;;;;;;5033982;28;20030;-75
2021/11/07 04:48:05;;;;;;;15.02;9.18;;;2.20;80.90;;;;;;5034371;28;20124;-76
2021/11/07 04:50:36;;;;;;;14.35;8.75;;;2.20;80.90;;;;;;5034240;28;20048;-76
2021/11/07 04:53:04;;;;;;;15.38;8.98;;;2.10;80.90;;;;;;5017645;28;20049;-77
2021/11/07 04:55:31;;;;;;;17.67;8.90;;;2.10;81.10;;;;;;5017537;28;20547;-76
2021/11/07 04:57:57;;;;;;;15.82;8.95;;;2.00;80.90;;;;;;5035365;28;20022;-77
2021/11/07 05:00:23;;;;;;;18.15;9.57;;;2.00;80.90;;;;;;5035205;28;20095;-76
2021/11/07 05:02:50;;;;;;;16.52;9.57;;;1.90;81.10;;;;;;5017080;28;20032;-76
2021/11/07 05:05:17;;;;;;;18.60;10.45;;;1.80;81.30;;;;;;5001185;28;20040;-74
2021/11/07 05:07:43;;;;;;;16.67;9.55;;;1.80;81.60;;;;;;5017090;28;20029;-74
2021/11/07 05:10:08;;;;;;;13.88;8.35;;;1.80;81.60;;;;;;5034779;28;20022;-75
2021/11/07 05:12:35;;;;;;;14.70;9.10;;;1.90;81.70;;;;;;5032035;28;20022;-74
2021/11/07 05:15:00;;;;;;;17.27;9.75;;;1.90;81.70;;;;;;5033506;28;20397;-74
2021/11/07 05:17:26;;;;;;;18.08;9.40;;;1.90;81.80;;;;;;5033365;28;20112;-74
2021/11/07 05:19:52;;;;;;;16.58;9.63;;;1.90;81.80;;;;;;5033160;28;20049;-74
2021/11/07 05:22:17;;;;;;;16.75;9.40;;;1.90;81.80;;;;;;5034452;28;20033;-74
2021/11/07 05:24:43;;;;;;;16.90;10.00;;;1.90;81.60;;;;;;5033168;28;20053;-74
2021/11/07 05:27:09;;;;;;;16.20;9.45;;;1.80;81.50;;;;;;5017003;28;20029;-75
2021/11/07 05:29:34;;;;;;;20.75;10.57;;;1.60;81.20;;;;;;5033134;28;20048;-74
2021/11/07 05:32:00;;;;;;;24.65;11.23;;;1.50;82.10;;;;;;5016852;28;20030;-74
2021/11/07 05:34:27;;;;;;;21.55;11.38;;;1.50;81.70;;;;;;5016484;28;20037;-74
2021/11/07 05:36:54;;;;;;;21.10;11.23;;;1.50;81.90;;;;;;5016515;28;20449;-74
2021/11/07 05:39:21;;;;;;;22.63;11.40;;;1.50;82.00;;;;;;5016850;28;20103;-74
2021/11/07 05:41:48;;;;;;;22.30;11.65;;;1.50;82.20;;;;;;5016678;28;20490;-74
2021/11/07 05:44:14;;;;;;;21.88;11.93;;;1.50;82.10;;;;;;5016815;28;20021;-74
2021/11/07 05:46:40;;;;;;;18.40;9.82;;;1.50;82.00;;;;;;5016536;28;20029;-74
2021/11/07 05:49:06;;;;;;;20.70;11.65;;;1.50;82.00;;;;;;5016354;28;20037;-74
2021/11/07 05:51:31;;;;;;;18.42;10.68;;;1.50;81.80;;;;;;5016507;28;20071;-75
2021/11/07 05:53:58;;;;;;;21.50;11.38;;;1.50;81.60;;;;;;5033026;28;20080;-75
2021/11/07 05:56:24;;;;;;;29.67;13.82;;;1.50;81.60;;;;;;5016082;28;20077;-74
2021/11/07 05:58:50;;;;;;;18.73;11.85;;;1.40;81.90;;;;;;5016210;28;20490;-75
2021/11/07 06:01:15;;;;;;;19.52;10.70;;;1.50;82.10;;;;;;5016533;28;20021;-74
2021/11/07 06:03:41;;;;;;;17.42;10.48;;;1.50;82.00;;;;;;5032781;28;20025;-74
2021/11/07 06:06:07;;;;;;;15.20;9.00;;;1.50;81.50;;;;;;5016560;28;20026;-74
2021/11/07 06:08:32;;;;;;;16.42;9.38;;;1.30;81.20;;;;;;5016310;28;20482;-75
2021/11/07 06:10:58;;;;;;;15.02;8.73;;;1.30;81.60;;;;;;5033721;28;20155;-75
2021/11/07 06:13:25;;;;;;;18.13;10.73;;;1.30;81.50;;;;;;5032737;28;20036;-74
2021/11/07 06:15:51;;;;;;;16.85;9.48;;;1.20;82.40;;;;;;5016143;28;20041;-75
2021/11/07 06:18:17;;;;;;;16.33;9.63;;;1.10;81.90;;;;;;5016052;28;20021;-74
2021/11/07 06:20:42;;;;;;;15.50;8.75;;;1.00;82.20;;;;;;5032481;28;20128;-73
2021/11/07 06:23:10;;;;;;;15.60;8.57;;;1.10;82.50;;;;;;5016078;28;20025;-75
2021/11/07 06:25:36;;;;;;;17.50;9.82;;;1.10;82.30;;;;;;5033379;28;20032;-75
2021/11/07 06:28:03;;;;;;;16.98;9.73;;;1.10;82.40;;;;;;5015999;28;20135;-75
2021/11/07 06:30:29;;;;;;;16.05;9.38;;;1.10;82.90;;;;;;5033659;28;20021;-75
2021/11/07 06:32:55;;;;;;;16.70;9.40;;;1.20;82.90;;;;;;5015878;28;20022;-75
2021/11/07 06:35:20;;;;;;;16.77;9.63;;;1.20;82.90;;;;;;5031909;28;20048;-74
2021/11/07 06:37:46;;;;;;;20.05;10.35;;;1.20;83.40;;;;;;5032038;28;20405;-75
2021/11/07 06:40:12;;;;;;;16.98;9.48;;;1.30;83.60;;;;;;5016122;28;20025;-74
2021/11/07 06:42:39;;;;;;;21.67;11.98;;;1.30;83.70;;;;;;5019641;28;20482;-75
2021/11/07 06:45:06;;;;;;;21.40;12.68;;;1.30;83.40;;;;;;5015941;28;20120;-75
2021/11/07 06:47:32;;;;;;;18.38;10.70;;;1.40;82.90;;;;;;5016685;28;20022;-75
2021/11/07 06:49:58;;;;;;;22.20;11.88;;;1.40;82.50;;;;;;5044471;28;20433;-75
2021/11/07 06:52:25;;;;;;;23.42;12.10;;;1.40;83.00;;;;;;5035531;28;20025;-75
2021/11/07 06:54:52;;;;;;;15.98;9.18;;;1.50;83.50;;;;;;5015697;28;20083;-75
2021/11/07 06:57:18;;;;;;;19.85;10.85;;;1.60;83.00;;;;;;5019203;28;20028;-74
2021/11/07 06:59:44;;;;;;;19.52;10.27;;;1.70;82.40;;;;;;5015924;28;20021;-76
2021/11/07 07:02:11;;;;;;;20.95;12.05;;;1.80;82.00;;;;;;5015584;28;20025;-75
2021/11/07 07:04:37;;;;;;;22.38;11.75;;;1.90;81.50;;;;;;5015548;28;20029;-73
2021/11/07 07:07:03;;;;;;;18.25;11.30;;;1.90;81.10;;;;;;5015003;28;20033;-73
2021/11/07 07:09:32;;;;;;;19.27;11.23;;;2.00;80.80;;;;;;5015268;28;20116;-73
2021/11/07 07:12:07;;;;;;;18.48;11.15;;;2.10;80.40;;;;;;5037734;28;20117;-73
2021/11/07 07:14:48;;;;;;;16.25;9.20;;;2.20;80.00;;;;;;5027616;28;20038;-74
2021/11/07 07:17:24;;;;;;;16.40;9.63;;;2.30;79.70;;;;;;5032237;28;20374;-74
2021/11/07 07:23:13;;;;;;;16.25;10.00;;;2.50;79.80;;;;;;4996038;28;20545;-73
2021/11/07 07:25:59;;;;;;;18.08;9.07;;;2.70;79.40;;;;;;5012784;28;20056;-74
2021/11/07 07:28:47;;;;;;;16.30;8.63;;;2.80;78.30;;;;;;4995517;28;20121;-74
2021/11/07 07:31:34;;;;;;;15.57;8.82;;;3.00;77.30;;;;;;4995549;28;20391;-75
2021/11/07 07:34:08;;;;;;;15.32;8.55;;;3.10;76.90;;;;;;5013065;28;20018;-73
2021/11/07 07:36:35;;;;;;;16.90;9.27;;;3.20;76.60;;;;;;4997276;28;20087;-74
2021/11/07 07:39:00;;;;;;;14.18;8.70;;;3.40;76.30;;;;;;4999271;28;20022;-74
2021/11/07 07:41:26;;;;;;;15.38;8.35;;;3.50;76.10;;;;;;4999279;28;20032;-74
2021/11/07 07:43:52;;;;;;;13.88;8.95;;;3.60;75.80;;;;;;5016506;28;20459;-73
2021/11/07 07:46:20;;;;;;;13.18;8.52;;;3.90;75.50;;;;;;4998809;28;20105;-73
2021/11/07 07:48:46;;;;;;;12.98;8.40;;;4.10;75.70;;;;;;4998747;28;20068;-74
2021/11/07 07:51:14;;;;;;;14.45;8.00;;;4.40;74.50;;;;;;4999051;28;20030;-74
2021/11/07 07:53:42;;;;;;;12.70;8.00;;;4.60;73.20;;;;;;5015138;28;20484;-74
2021/11/07 07:56:09;;;;;;;12.02;7.47;;;4.70;71.80;;;;;;5016503;28;20061;-73
2021/11/07 07:58:37;;;;;;;14.45;8.32;;;4.80;71.30;;;;;;5016344;28;20088;-74
2021/11/07 08:01:03;;;;;;;11.02;7.20;;;4.90;70.80;;;;;;4998679;28;20386;-76
2021/11/07 08:03:29;;;;;;;14.65;8.75;;;5.00;70.60;;;;;;4998674;28;20422;-75
2021/11/07 08:05:56;;;;;;;14.90;8.38;;;5.00;70.30;;;;;;5016351;28;20025;-76
2021/11/07 08:08:21;;;;;;;11.55;6.70;;;5.10;70.50;;;;;;5016402;28;20109;-79
2021/11/07 08:10:49;;;;;;;17.77;7.38;;;5.20;74.60;;;;;;4998830;28;20061;-77
2021/11/07 08:13:16;;;;;;;13.77;7.60;;;5.60;83.90;;;;;;4998765;28;20122;-77
2021/11/07 08:15:44;;;;;;;13.18;7.35;;;6.10;79.70;;;;;;5016012;28;20425;-79
2021/11/07 08:18:09;;;;;;;11.60;7.38;;;6.60;76.00;;;;;;4982192;28;20175;-77
2021/11/07 08:20:35;;;;;;;11.02;6.95;;;6.90;70.70;;;;;;5034306;28;20084;-76
2021/11/07 08:23:02;;;;;;;13.93;6.53;;;7.30;68.50;;;;;;5035498;28;20090;-76
2021/11/07 08:25:31;;;;;;;8.43;5.97;;;7.70;68.60;;;;;;5017667;28;20465;-79
2021/11/07 08:28:05;;;;;;;9.27;5.90;;;8.20;66.30;;;;;;5017925;28;20029;-78
2021/11/07 08:30:38;;;;;;;7.90;5.97;;;8.70;64.10;;;;;;5034123;28;20453;-81
2021/11/07 08:33:05;;;;;;;10.43;6.15;;;9.00;62.60;;;;;;5001688;28;20032;-76
2021/11/07 08:35:31;;;;;;;11.40;6.60;;;9.40;59.70;;;;;;5017739;28;20080;-76
2021/11/07 08:38:03;;;;;;;13.25;7.80;;;9.50;57.30;;;;;;5018096;28;20068;-75
2021/11/07 08:40:32;;;;;;;12.15;7.85;;;9.10;55.80;;;;;;5035961;28;20101;-77
2021/11/07 09:02:13;;;;;;;13.83;8.97;;;7.60;62.00;;;;;;5034938;28;20044;-77
2021/11/07 09:04:55;;;;;;;12.38;9.52;;;7.50;62.60;;;;;;5017395;28;20028;-77
2021/11/07 09:07:36;;;;;;;14.07;9.05;;;7.60;62.50;;;;;;5034027;28;20083;-78
2021/11/07 09:10:18;;;;;;;10.45;7.03;;;7.70;62.60;;;;;;5033865;28;20493;-79
2021/11/07 09:12:45;;;;;;;11.07;7.30;;;7.60;62.00;;;;;;5017309;28;20115;-78
2021/11/07 09:15:13;;;;;;;10.23;6.72;;;7.60;62.30;;;;;;5016956;28;20124;-78
2021/11/07 09:17:38;;;;;;;9.40;6.60;;;7.60;62.60;;;;;;5017198;28;20021;-78
2021/11/07 09:20:08;;;;;;;10.65;6.97;;;7.80;62.80;;;;;;5001000;28;20141;-78
2021/11/07 09:25:07;;;;;;;10.20;6.57;;;7.90;63.30;;;;;;5015622;28;20030;-79
2021/11/07 09:27:39;;;;;;;10.55;6.22;;;7.90;62.80;;;;;;4997462;28;20109;-78
2021/11/07 09:30:15;;;;;;;9.43;6.30;;;7.90;62.60;;;;;;5014795;28;20045;-78
2021/11/07 09:35:23;;;;;;;10.13;6.38;;;7.90;60.40;;;;;;5014608;28;20025;-78
2021/11/07 09:40:16;;;;;;;9.50;6.53;;;8.00;60.80;;;;;;5014943;28;20026;-78
2021/11/07 09:46:10;;;;;;;9.57;6.20;;;8.30;62.10;;;;;;5014790;28;20029;-77
2021/11/07 09:48:27;;;;;;;7.47;5.10;;;8.40;61.20;;;;;;5010725;28;20430;-79
2021/11/07 09:50:54;;;;;;;8.40;4.75;;;8.70;60.10;;;;;;4997772;28;20030;-74
2021/11/07 09:53:22;;;;;;;8.77;5.97;;;9.20;60.10;;;;;;4997498;28;20029;-76
2021/11/07 09:55:50;;;;;;;8.35;5.65;;;9.80;57.80;;;;;;4999022;28;20092;-79
2021/11/07 09:58:16;;;;;;;8.25;5.32;;;10.60;56.30;;;;;;4995494;28;20434;-79
2021/11/07 10:00:52;;;;;;;6.13;2.65;;;11.40;52.50;;;;;;4996448;28;20049;-76
2021/11/07 10:03:20;;;;;;;2.15;1.50;;;12.10;44.40;;;;;;5014331;28;20018;-78
2021/11/07 10:05:49;;;;;;;2.53;1.70;;;12.50;38.90;;;;;;5014561;28;20120;-78
2021/11/07 10:08:16;;;;;;;5.47;3.15;;;13.00;37.00;;;;;;5014277;28;20037;-77
2021/11/07 10:10:54;;;;;;;5.55;3.88;;;13.50;39.20;;;;;;5014218;28;20029;-76
2021/11/07 10:13:26;;;;;;;7.72;5.22;;;13.70;39.50;;;;;;5014181;28;20033;-75
2021/11/07 10:16:13;;;;;;;4.60;2.80;;;13.40;41.90;;;;;;4996283;28;20398;-78
2021/11/07 10:18:54;;;;;;;2.30;1.83;;;13.30;39.00;;;;;;5016736;28;20104;-75
2021/11/07 10:21:25;;;;;;;4.25;2.67;;;13.70;35.00;;;;;;5016095;28;20028;-75
2021/11/07 10:24:07;;;;;;;3.90;2.80;;;14.10;35.20;;;;;;5015908;28;20029;-76
2021/11/07 10:26:36;;;;;;;2.88;2.10;;;14.30;34.80;;;;;;5016076;28;20412;-78
2021/11/07 10:29:06;;;;;;;3.72;2.05;;;14.20;35.10;;;;;;4999790;28;20037;-76
2021/11/07 10:31:41;;;;;;;2.25;1.80;;;14.30;34.50;;;;;;5000165;28;20026;-78
2021/11/07 10:34:37;;;;;;;5.35;3.22;;;14.40;33.80;;;;;;5032367;28;20021;-78
2021/11/07 10:45:24;;;;;;;3.20;2.30;;;14.80;34.90;;;;;;5033640;28;20037;-77
2021/11/07 10:53:46;;;;;;;4.47;3.53;;;13.60;36.80;;;;;;5040292;28;20036;-78
2021/11/07 10:56:12;;;;;;;5.05;3.67;;;13.10;39.10;;;;;;5036837;28;20041;-76
2021/11/07 10:58:43;;;;;;;6.47;4.82;;;13.00;40.30;;;;;;5017617;28;20025;-80
2021/11/07 11:01:18;;;;;;;11.15;7.18;;;13.30;40.80;;;;;;5015615;28;20159;-77
2021/11/07 11:03:46;;;;;;;;;;;13.90;40.40;;;;;;5015631;28;20124;-76
2021/11/07 11:06:13;;;;;;;7.13;5.63;;;14.40;39.70;;;;;;5031993;28;20270;-76
2021/11/07 11:08:52;;;;;;;6.40;4.55;;;14.80;38.50;;;;;;5015359;28;20085;-76
2021/11/07 11:11:30;;;;;;;6.32;3.60;;;15.00;37.60;;;;;;5016664;28;20029;-79
2021/11/07 11:16:55;;;;;;;5.80;3.45;;;14.50;37.30;;;;;;5044687;28;20041;-78
2021/11/07 11:19:41;;;;;;;2.85;2.50;;;14.40;37.70;;;;;;5055430;28;20045;-78
2021/11/07 11:31:25;;;;;;;1.38;1.27;;;14.80;37.00;;;;;;5033974;28;20080;-80
2021/11/07 11:33:35;;;;;;;1.80;1.10;;;15.40;35.00;;;;;;5014420;28;20037;-78
2021/11/07 11:38:33;;;;;;;2.97;2.08;;;15.30;33.70;;;;;;5033554;28;20025;-76
2021/11/07 11:41:12;;;;;;;3.13;2.40;;;15.20;34.20;;;;;;5015495;28;20037;-76
2021/11/07 11:43:42;;;;;;;2.55;1.83;;;14.90;34.70;;;;;;5033361;28;20030;-77
2021/11/07 11:46:24;;;;;;;3.58;2.55;;;14.70;34.40;;;;;;5032047;28;20029;-79
2021/11/07 11:57:24;;;;;;;4.60;3.83;;;13.60;38.60;;;;;;5033325;28;20064;-77
2021/11/07 12:02:37;;;;;;;7.63;4.43;;;13.00;42.00;;;;;;5032892;28;20036;-79
2021/11/07 12:05:30;;;;;;;5.13;3.80;;;12.90;42.70;;;;;;5014872;28;20032;-79
2021/11/07 12:08:22;;;;;;;4.25;3.47;;;12.80;43.50;;;;;;5032942;28;20025;-76
2021/11/07 12:10:56;;;;;;;6.00;4.30;;;13.10;43.30;;;;;;5018372;28;20079;-76
2021/11/07 12:16:12;;;;;;;5.10;4.15;;;13.20;43.00;;;;;;5041779;28;20043;-77
2021/11/07 12:19:02;;;;;;;5.10;4.40;;;13.30;43.10;;;;;;5034454;28;20497;-79
2021/11/07 12:21:49;;;;;;;5.18;4.13;;;13.10;43.70;;;;;;5031910;28;20379;-75
2021/11/07 12:24:23;;;;;;;5.80;4.28;;;13.20;43.40;;;;;;5018464;28;20030;-76
2021/11/07 12:27:42;;;;;;;4.78;3.50;;;13.40;43.00;;;;;;5034125;28;20103;-76
2021/11/07 12:30:11;;;;;;;4.38;3.40;;;14.10;41.10;;;;;;5035181;28;20036;-76
2021/11/07 12:32:39;;;;;;;3.88;3.22;;;15.10;38.90;;;;;;5018281;28;20053;-80
2021/11/07 12:35:34;;;;;;;5.38;4.10;;;15.50;37.80;;;;;;5018085;28;20064;-77
2021/11/07 12:41:28;;;;;;;5.32;3.90;;;15.10;38.70;;;;;;5036557;28;20037;-77
2021/11/07 12:44:00;;;;;;;5.60;4.10;;;15.40;38.70;;;;;;5017867;28;20025;-77
2021/11/07 12:46:47;;;;;;;7.75;3.15;;;15.70;37.90;;;;;;5018302;28;20021;-76
2021/11/07 12:49:18;;;;;;;4.00;3.05;;;14.80;40.00;;;;;;5019671;28;20120;-79
2021/11/07 12:51:57;;;;;;;5.38;3.67;;;16.40;38.60;;;;;;5018603;28;20028;-78
2021/11/07 12:54:22;;;;;;;3.92;3.40;;;17.70;35.20;;;;;;5017882;28;20025;-79
2021/11/07 12:56:53;;;;;;;4.35;3.22;;;19.70;31.80;;;;;;5034519;28;20124;-78
2021/11/07 12:59:28;;;;;;;4.75;3.20;;;20.80;29.70;;;;;;5017236;28;20032;-80
2021/11/07 13:02:18;;;;;;;3.28;2.92;;;22.10;26.00;;;;;;5017715;28;20021;-77
2021/11/07 13:05:10;;;;;;;3.20;2.90;;;23.70;23.60;;;;;;5017807;28;20025;-76
2021/11/07 13:07:54;;;;;;;3.53;2.50;;;25.60;20.50;;;;;;5033061;28;20108;-76
2021/11/07 13:29:45;;;;;;;4.85;3.47;;;15.10;38.40;;;;;;5035057;28;20036;-80
2021/11/07 13:32:39;;;;;;;4.68;3.40;;;15.20;38.50;;;;;;5017068;28;20029;-78
2021/11/07 13:35:23;;;;;;;13.10;7.15;;;15.10;38.50;;;;;;5033577;28;20116;-79
2021/11/07 13:37:57;;;;;;;7.75;5.10;;;14.20;39.70;;;;;;5016990;28;20091;-77
2021/11/07 13:40:27;;;;;;;5.95;4.22;;;13.60;41.40;;;;;;5017187;28;20026;-77
2021/11/07 13:43:28;;;;;;;6.43;4.55;;;13.20;42.50;;;;;;5016686;28;20063;-79
2021/11/07 13:46:20;;;;;;;;;;;;;;;;;;;;;
2021/11/07 13:49:02;;;;;;;14.75;6.40;;;12.20;46.10;;;;;;5034374;28;20040;-80
2021/11/07 13:51:34;;;;;;;6.30;4.30;;;11.90;47.80;;;;;;5034725;28;20079;-77
2021/11/07 13:54:02;;;;;;;5.45;3.70;;;11.80;48.10;;;;;;5018069;28;20022;-77
2021/11/07 13:56:29;;;;;;;5.63;3.67;;;11.60;48.00;;;;;;5016700;28;20559;-80
2021/11/07 13:58:55;;;;;;;5.20;3.58;;;11.50;48.80;;;;;;5016426;28;20026;-78
2021/11/07 14:01:21;;;;;;;5.82;4.15;;;11.50;49.20;;;;;;5016518;28;20029;-77
2021/11/07 14:03:54;;;;;;;5.78;4.03;;;11.20;50.50;;;;;;4999898;28;20482;-80
2021/11/07 14:06:28;;;;;;;5.45;4.13;;;11.20;51.30;;;;;;5016432;28;20035;-77
2021/11/07 14:09:01;;;;;;;4.63;2.67;;;11.10;51.80;;;;;;5034140;28;20105;-80
2021/11/07 14:11:28;;;;;;;6.40;3.95;;;11.20;51.80;;;;;;5016541;28;20025;-78
2021/11/07 14:13:56;;;;;;;5.97;3.97;;;11.20;51.90;;;;;;5016465;28;20056;-79
2021/11/07 14:16:32;;;;;;;5.65;4.38;;;11.30;52.30;;;;;;5016144;28;20037;-77
2021/11/07 14:19:00;;;;;;;5.63;4.15;;;11.20;53.00;;;;;;5012761;28;20136;-77
2021/11/07 14:21:31;;;;;;;6.28;4.57;;;11.30;53.60;;;;;;5014012;28;20041;-80
2021/11/07 14:26:37;;;;;;;6.55;4.40;;;11.80;52.20;;;;;;4997290;28;20033;-77
2021/11/07 14:32:01;;;;;;;5.53;4.03;;;12.20;51.20;;;;;;5013851;28;20065;-78
2021/11/07 14:34:37;;;;;;;5.57;3.28;;;12.40;50.20;;;;;;5012759;28;20081;-78
2021/11/07 14:37:11;;;;;;;7.30;4.30;;;12.30;50.20;;;;;;5012471;28;20084;-77
2021/11/07 14:39:44;;;;;;;6.40;4.45;;;12.10;51.50;;;;;;5012592;28;20026;-80
2021/11/07 14:52:36;;;;;;;6.15;3.80;;;11.10;53.90;;;;;;5014198;28;20026;-78
2021/11/07 14:55:12;;;;;;;5.30;4.03;;;11.00;54.70;;;;;;5013585;28;20038;-78
2021/11/07 14:58:06;;;;;;;5.22;3.58;;;10.90;55.50;;;;;;5014693;28;20119;-79
2021/11/07 15:00:37;;;;;;;8.85;4.35;;;10.80;56.20;;;;;;5013668;28;20022;-77
2021/11/07 15:03:09;;;;;;;6.63;3.83;;;10.60;57.60;;;;;;5012216;28;20507;-78
2021/11/07 15:05:47;;;;;;;4.22;3.00;;;10.50;57.80;;;;;;4996020;28;20481;-80
2021/11/07 15:11:23;;;;;;;4.47;2.80;;;10.50;58.60;;;;;;5013444;28;20037;-78
2021/11/07 15:14:00;;;;;;;10.15;6.53;;;10.40;59.20;;;;;;5012145;28;20029;-78
2021/11/07 15:19:04;;;;;;;2.35;1.65;;;10.30;60.60;;;;;;5018778;28;20075;-77
2021/11/07 15:21:48;;;;;;;2.28;1.33;;;10.30;61.90;;;;;;4991603;28;20097;-77
2021/11/07 15:24:25;;;;;;;3.17;1.40;;;10.20;63.70;;;;;;4991592;28;20030;-78
2021/11/07 15:26:56;;;;;;;1.60;1.00;;;10.00;66.00;;;;;;4975338;28;20034;-79